createdAt,value
2023-03-11T00:02:22.835Z,5.00
2023-03-11T00:05:09.723Z,5.00
2023-03-11T00:07:55.549Z,5.00
2023-03-11T00:10:43.723Z,5.00
2023-03-11T00:13:30.193Z,5.00
2023-03-11T00:16:15.937Z,5.00
2023-03-11T00:19:01.745Z,5.10
2023-03-11T00:21:47.531Z,5.10
2023-03-11T00:24:32.805Z,5.20
2023-03-11T00:27:18.669Z,5.10
2023-03-11T00:30:04.696Z,5.10
2023-03-11T00:32:53.104Z,5.10
2023-03-11T00:35:38.796Z,5.00
2023-03-11T00:38:24.076Z,5.10
2023-03-11T00:41:09.720Z,5.10
2023-03-11T00:43:55.216Z,5.20
2023-03-11T00:46:40.658Z,5.30
2023-03-11T00:49:26.091Z,5.30
2023-03-11T00:52:11.648Z,5.30
2023-03-11T00:54:59.066Z,5.40
2023-03-11T00:57:46.241Z,5.20
2023-03-11T01:00:34.020Z,5.10
2023-03-11T01:03:21.023Z,5.20
2023-03-11T01:06:07.617Z,5.20
2023-03-11T01:08:53.080Z,5.20
2023-03-11T01:11:38.767Z,5.10
2023-03-11T01:14:24.568Z,5.10
2023-03-11T01:17:10.354Z,5.20
2023-03-11T01:19:55.873Z,5.20
2023-03-11T01:22:41.363Z,5.30
2023-03-11T01:25:26.956Z,5.30
2023-03-11T01:28:12.517Z,5.20
2023-03-11T01:30:58.255Z,5.10
2023-03-11T01:33:43.780Z,5.00
2023-03-11T01:36:30.826Z,5.00
2023-03-11T01:39:16.260Z,5.00
2023-03-11T01:42:01.968Z,4.90
2023-03-11T01:44:47.826Z,4.90
2023-03-11T01:47:36.530Z,4.90
2023-03-11T01:50:23.229Z,5.00
2023-03-11T01:53:10.011Z,5.00
2023-03-11T01:55:56.114Z,5.10
2023-03-11T01:58:46.339Z,4.90
2023-03-11T02:01:31.910Z,5.00
2023-03-11T02:04:19.960Z,5.00
2023-03-11T02:07:08.406Z,5.00
2023-03-11T02:09:54.534Z,5.00
2023-03-11T02:12:40.911Z,4.90
2023-03-11T02:15:26.816Z,4.80
2023-03-11T02:18:14.655Z,4.80
2023-03-11T02:21:03.903Z,4.80
2023-03-11T02:23:58.804Z,4.80
2023-03-11T02:26:53.496Z,4.70
2023-03-11T02:29:40.240Z,4.70
2023-03-11T02:32:26.315Z,4.70
2023-03-11T02:35:12.063Z,4.70
2023-03-11T02:37:57.677Z,4.70
2023-03-11T02:40:49.679Z,4.70
2023-03-11T02:43:44.785Z,4.70
2023-03-11T02:46:32.229Z,4.50
2023-03-11T02:49:18.479Z,4.70
2023-03-11T02:52:04.514Z,4.70
2023-03-11T02:54:50.149Z,4.80
2023-03-11T02:57:35.727Z,4.80
2023-03-11T03:00:21.329Z,4.80
2023-03-11T03:03:15.981Z,4.80
2023-03-11T03:06:01.985Z,4.80
2023-03-11T03:08:47.862Z,4.60
2023-03-11T03:11:33.523Z,4.60
2023-03-11T03:14:19.914Z,4.70
2023-03-11T03:17:05.371Z,4.60
2023-03-11T03:19:50.957Z,4.60
2023-03-11T03:22:37.700Z,4.70
2023-03-11T03:25:23.757Z,4.40
2023-03-11T03:28:11.733Z,4.60
2023-03-11T03:31:03.816Z,4.60
2023-03-11T03:33:49.163Z,4.60
2023-03-11T03:36:34.850Z,4.60
2023-03-11T03:39:22.932Z,4.60
2023-03-11T03:42:10.644Z,4.60
2023-03-11T03:44:58.870Z,4.60
2023-03-11T03:47:44.387Z,4.60
2023-03-11T03:50:29.962Z,4.60
2023-03-11T03:53:16.254Z,4.50
2023-03-11T03:56:03.069Z,4.60
2023-03-11T03:58:50.703Z,4.50
2023-03-11T04:01:37.114Z,4.50
2023-03-11T04:04:22.714Z,4.40
2023-03-11T04:07:08.541Z,4.40
2023-03-11T04:09:54.168Z,4.10
2023-03-11T04:12:40.324Z,4.30
2023-03-11T04:15:26.982Z,4.30
2023-03-11T04:18:12.578Z,4.70
2023-03-11T04:20:58.221Z,4.20
2023-03-11T04:23:43.954Z,4.20
2023-03-11T04:26:31.546Z,4.20
2023-03-11T04:29:17.150Z,4.20
2023-03-11T04:32:08.119Z,4.20
2023-03-11T04:34:55.394Z,4.20
2023-03-11T04:37:41.207Z,4.20
2023-03-11T04:40:27.147Z,4.20
2023-03-11T04:43:12.969Z,4.20
2023-03-11T04:45:58.740Z,4.20
2023-03-11T04:48:45.332Z,4.20
2023-03-11T04:51:31.728Z,4.10
2023-03-11T04:54:17.966Z,4.10
2023-03-11T04:57:04.101Z,4.10
2023-03-11T04:59:49.508Z,4.20
2023-03-11T05:02:36.121Z,4.10
2023-03-11T05:05:21.781Z,4.10
2023-03-11T05:08:07.394Z,4.10
2023-03-11T05:10:53.976Z,4.10
2023-03-11T05:13:41.092Z,4.00
2023-03-11T05:16:26.720Z,3.90
2023-03-11T05:19:31.041Z,3.60
2023-03-11T05:22:18.549Z,3.50
2023-03-11T05:25:04.777Z,3.50
2023-03-11T05:27:50.443Z,3.70
2023-03-11T05:30:37.178Z,3.70
2023-03-11T05:33:22.688Z,3.80
2023-03-11T05:36:09.618Z,3.70
2023-03-11T05:38:58.183Z,3.80
2023-03-11T05:41:43.852Z,3.80
2023-03-11T05:44:29.870Z,3.80
2023-03-11T05:47:16.528Z,3.80
2023-03-11T05:50:02.774Z,3.80
2023-03-11T05:52:48.330Z,3.70
2023-03-11T05:55:34.465Z,3.70
2023-03-11T05:58:20.025Z,3.70
2023-03-11T06:01:10.844Z,3.60
2023-03-11T06:03:56.397Z,3.50
2023-03-11T06:06:41.888Z,3.50
2023-03-11T06:09:28.285Z,3.50
2023-03-11T06:12:14.243Z,3.50
2023-03-11T06:15:18.244Z,3.50
2023-03-11T06:18:04.642Z,2.80
2023-03-11T06:20:50.547Z,3.50
2023-03-11T06:23:36.289Z,3.50
2023-03-11T06:26:22.631Z,3.50
2023-03-11T06:29:12.416Z,3.50
2023-03-11T06:31:57.853Z,3.50
2023-03-11T06:34:43.540Z,3.50
2023-03-11T06:37:29.424Z,3.60
2023-03-11T06:40:15.563Z,3.60
2023-03-11T06:43:01.581Z,3.60
2023-03-11T06:45:51.352Z,3.70
2023-03-11T06:48:37.079Z,3.70
2023-03-11T06:51:22.522Z,3.80
2023-03-11T06:54:09.852Z,3.80
2023-03-11T06:56:55.292Z,3.90
2023-03-11T06:59:41.116Z,4.00
2023-03-11T07:02:29.248Z,4.10
2023-03-11T07:05:15.132Z,4.20
2023-03-11T07:08:00.986Z,4.20
2023-03-11T07:10:46.873Z,4.30
2023-03-11T07:13:32.405Z,4.30
2023-03-11T07:16:19.393Z,4.40
2023-03-11T07:19:05.916Z,4.50
2023-03-11T07:21:51.670Z,4.50
2023-03-11T07:24:37.195Z,4.50
2023-03-11T07:27:23.265Z,4.40
2023-03-11T07:30:09.534Z,4.50
2023-03-11T07:32:54.961Z,4.30
2023-03-11T07:35:40.613Z,4.40
2023-03-11T07:38:26.236Z,4.40
2023-03-11T07:41:12.686Z,4.40
2023-03-11T07:43:59.073Z,4.30
2023-03-11T07:46:45.152Z,4.40
2023-03-11T07:49:30.902Z,4.50
2023-03-11T07:52:16.322Z,4.40
2023-03-11T07:55:01.940Z,4.30
2023-03-11T07:57:48.721Z,5.00
2023-03-11T08:00:34.310Z,4.50
2023-03-11T08:03:20.196Z,4.70
2023-03-11T08:06:12.614Z,4.80
2023-03-11T08:08:59.214Z,4.90
2023-03-11T08:11:45.102Z,5.00
2023-03-11T08:14:30.636Z,5.10
2023-03-11T08:17:17.486Z,5.30
2023-03-11T08:20:03.173Z,5.50
2023-03-11T08:22:57.562Z,5.60
2023-03-11T08:25:43.493Z,5.60
2023-03-11T08:28:29.296Z,5.70
2023-03-11T08:31:19.430Z,5.80
2023-03-11T08:34:06.762Z,5.90
2023-03-11T08:36:52.503Z,6.00
2023-03-11T08:39:38.118Z,6.10
2023-03-11T08:42:23.790Z,6.00
2023-03-11T08:45:09.878Z,6.20
2023-03-11T08:47:55.153Z,6.20
2023-03-11T08:50:53.369Z,6.30
2023-03-11T08:53:39.682Z,6.50
2023-03-11T08:56:25.383Z,6.50
2023-03-11T08:59:10.746Z,6.70
2023-03-11T09:01:56.315Z,6.80
2023-03-11T09:04:41.864Z,6.90
2023-03-11T09:07:27.498Z,7.00
2023-03-11T09:10:15.036Z,7.30
2023-03-11T09:13:00.831Z,7.60
2023-03-11T09:15:47.687Z,7.70
2023-03-11T09:18:33.326Z,7.60
2023-03-11T09:21:19.219Z,7.50
2023-03-11T09:24:05.491Z,7.30
2023-03-11T09:26:50.971Z,7.30
2023-03-11T09:29:36.490Z,7.40
2023-03-11T09:32:22.198Z,7.70
2023-03-11T09:35:07.882Z,7.40
2023-03-11T09:37:53.427Z,7.10
2023-03-11T09:41:00.610Z,7.40
2023-03-11T09:43:45.972Z,7.80
2023-03-11T09:46:48.447Z,8.10
2023-03-11T09:49:33.765Z,8.30
2023-03-11T09:52:24.016Z,8.50
2023-03-11T09:55:29.906Z,8.70
2023-03-11T09:58:21.725Z,9.00
2023-03-11T10:01:18.407Z,9.00
2023-03-11T10:04:16.709Z,8.90
2023-03-11T10:07:06.041Z,8.60
2023-03-11T10:09:53.270Z,8.90
2023-03-11T10:12:52.151Z,9.20
2023-03-11T10:15:56.506Z,9.40
2023-03-11T10:18:57.381Z,9.50
2023-03-11T10:22:09.498Z,9.50
2023-03-11T10:25:05.254Z,9.60
2023-03-11T10:27:57.126Z,9.40
2023-03-11T10:30:52.112Z,9.30
2023-03-11T10:33:40.962Z,9.10
2023-03-11T10:36:29.669Z,9.20
2023-03-11T10:39:15.283Z,9.40
2023-03-11T10:42:02.063Z,9.40
2023-03-11T10:44:47.799Z,8.50
2023-03-11T10:47:33.501Z,8.70
2023-03-11T10:50:19.635Z,8.80
2023-03-11T10:53:10.092Z,9.10
2023-03-11T10:55:57.609Z,9.40
2023-03-11T10:58:48.703Z,9.50
2023-03-11T11:01:34.247Z,9.80
2023-03-11T11:04:27.004Z,9.70
2023-03-11T11:07:30.848Z,9.80
2023-03-11T11:10:24.176Z,9.80
2023-03-11T11:13:12.847Z,10.10
2023-03-11T11:16:04.526Z,10.10
2023-03-11T11:18:51.817Z,10.10
2023-03-11T11:21:41.356Z,10.20
2023-03-11T11:24:28.242Z,10.50
2023-03-11T11:27:27.620Z,10.80
2023-03-11T11:30:16.932Z,10.80
2023-03-11T11:33:21.033Z,10.90
2023-03-11T11:36:12.074Z,11.20
2023-03-11T11:38:58.990Z,11.80
2023-03-11T11:41:45.208Z,12.00
2023-03-11T11:44:33.412Z,11.50
2023-03-11T11:47:23.784Z,11.10
2023-03-11T11:50:16.380Z,11.70
2023-03-11T11:53:21.053Z,12.60
2023-03-11T11:56:06.704Z,13.20
2023-03-11T11:58:54.670Z,13.00
2023-03-11T12:01:42.262Z,12.50
2023-03-11T12:04:27.507Z,12.70
2023-03-11T12:07:15.679Z,13.30
2023-03-11T12:10:23.742Z,15.60
2023-03-11T12:13:10.969Z,19.40
2023-03-11T12:16:09.624Z,22.80
2023-03-11T12:19:17.271Z,25.70
2023-03-11T12:22:25.302Z,27.40
2023-03-11T12:25:22.454Z,28.30
2023-03-11T12:28:23.254Z,29.40
2023-03-11T12:31:10.312Z,30.00
2023-03-11T12:33:55.927Z,30.20
2023-03-11T12:36:43.925Z,30.80
2023-03-11T12:39:35.378Z,31.20
2023-03-11T12:42:21.742Z,31.00
2023-03-11T12:45:26.238Z,30.30
2023-03-11T12:48:31.704Z,28.80
2023-03-11T12:51:26.235Z,28.10
2023-03-11T12:54:32.147Z,28.80
2023-03-11T12:57:17.830Z,29.30
2023-03-11T13:00:18.012Z,30.60
2023-03-11T13:03:12.859Z,31.40
2023-03-11T13:05:58.285Z,31.30
2023-03-11T13:08:49.780Z,31.20
2023-03-11T13:11:42.976Z,31.20
2023-03-11T13:14:29.387Z,31.40
2023-03-11T13:17:30.752Z,28.40
2023-03-11T13:20:56.245Z,28.60
2023-03-11T13:23:42.017Z,27.60
2023-03-11T13:26:35.065Z,27.60
2023-03-11T13:29:39.369Z,28.30
2023-03-11T13:32:25.624Z,27.90
2023-03-11T13:35:20.688Z,25.50
2023-03-11T13:38:09.417Z,24.70
2023-03-11T13:40:55.102Z,24.10
2023-03-11T13:43:44.723Z,22.70
2023-03-11T13:46:35.588Z,21.40
2023-03-11T13:49:33.061Z,19.60
2023-03-11T13:52:26.404Z,18.20
2023-03-11T13:55:18.274Z,17.20
2023-03-11T13:58:14.139Z,16.20
2023-03-11T14:01:00.851Z,15.10
2023-03-11T14:03:47.054Z,14.70
2023-03-11T14:06:32.516Z,14.10
2023-03-11T14:09:19.039Z,13.60
2023-03-11T14:12:05.141Z,13.00
2023-03-11T14:14:58.938Z,12.90
2023-03-11T14:17:46.589Z,13.00
2023-03-11T14:20:34.631Z,13.80
2023-03-11T14:23:20.314Z,14.90
2023-03-11T14:26:08.505Z,14.80
2023-03-11T14:28:55.444Z,14.70
2023-03-11T14:31:43.831Z,14.30
2023-03-11T14:34:30.977Z,13.90
2023-03-11T14:37:36.187Z,13.60
2023-03-11T14:40:21.956Z,13.20
2023-03-11T14:43:08.055Z,12.90
2023-03-11T14:45:54.432Z,12.60
2023-03-11T14:48:42.259Z,12.40
2023-03-11T14:51:29.570Z,12.10
2023-03-11T14:54:17.831Z,12.00
2023-03-11T14:57:18.817Z,12.00
2023-03-11T15:00:08.001Z,11.80
2023-03-11T15:03:14.101Z,11.70
2023-03-11T15:06:03.146Z,11.70
2023-03-11T15:08:51.238Z,11.60
2023-03-11T15:11:48.280Z,11.50
2023-03-11T15:14:48.455Z,11.20
2023-03-11T15:17:41.171Z,11.30
2023-03-11T15:20:31.153Z,11.80
2023-03-11T15:23:20.977Z,11.60
2023-03-11T15:26:07.085Z,11.70
2023-03-11T15:28:53.495Z,11.80
2023-03-11T15:31:39.951Z,11.70
2023-03-11T15:34:26.733Z,11.50
2023-03-11T15:37:20.377Z,11.40
2023-03-11T15:40:35.313Z,11.40
2023-03-11T15:43:30.040Z,11.30
2023-03-11T15:46:15.814Z,11.10
2023-03-11T15:49:01.375Z,11.00
2023-03-11T15:51:47.283Z,10.90
2023-03-11T15:54:32.594Z,10.70
2023-03-11T15:57:23.758Z,10.50
2023-03-11T16:00:17.091Z,10.30
2023-03-11T16:03:02.869Z,10.10
2023-03-11T16:05:48.300Z,10.10
2023-03-11T16:08:34.688Z,10.00
2023-03-11T16:11:20.056Z,9.90
2023-03-11T16:14:06.351Z,9.70
2023-03-11T16:16:51.929Z,9.50
2023-03-11T16:19:37.124Z,9.40
2023-03-11T16:22:29.647Z,9.30
2023-03-11T16:25:27.185Z,9.30
2023-03-11T16:28:14.263Z,9.40
2023-03-11T16:30:59.707Z,9.40
2023-03-11T16:33:45.480Z,9.40
2023-03-11T16:36:31.107Z,9.40
2023-03-11T16:39:16.772Z,9.30
2023-03-11T16:42:01.898Z,9.30
2023-03-11T16:44:47.030Z,9.40
2023-03-11T16:47:32.694Z,9.40
2023-03-11T16:50:18.772Z,9.30
2023-03-11T16:53:05.011Z,9.20
2023-03-11T16:55:50.713Z,8.80
2023-03-11T16:58:36.362Z,9.30
2023-03-11T17:01:22.302Z,9.30
2023-03-11T17:04:07.879Z,9.30
2023-03-11T17:06:53.401Z,9.20
2023-03-11T17:09:39.231Z,9.10
2023-03-11T17:12:25.803Z,9.10
2023-03-11T17:15:11.395Z,9.10
2023-03-11T17:17:56.678Z,9.00
2023-03-11T17:20:43.643Z,9.00
2023-03-11T17:23:29.076Z,9.00
2023-03-11T17:26:16.605Z,9.00
2023-03-11T17:29:01.940Z,8.90
2023-03-11T17:31:47.781Z,8.90
2023-03-11T17:34:33.696Z,8.80
2023-03-11T17:37:19.742Z,8.80
2023-03-11T17:40:06.001Z,8.80
2023-03-11T17:42:51.688Z,8.70
2023-03-11T17:45:38.500Z,8.70
2023-03-11T17:48:24.120Z,8.60
2023-03-11T17:51:11.704Z,8.50
2023-03-11T17:53:57.381Z,8.50
2023-03-11T17:56:42.823Z,8.50
2023-03-11T17:59:28.705Z,8.50
2023-03-11T18:02:14.467Z,8.40
2023-03-11T18:05:00.002Z,8.30
2023-03-11T18:07:45.470Z,8.80
2023-03-11T18:10:30.943Z,6.60
2023-03-11T18:13:16.886Z,8.10
2023-03-11T18:16:04.409Z,8.00
2023-03-11T18:18:50.381Z,7.90
2023-03-11T18:21:36.090Z,7.70
2023-03-11T18:24:21.338Z,7.70
2023-03-11T18:27:06.940Z,7.60
2023-03-11T18:29:52.796Z,7.50
2023-03-11T18:32:38.573Z,7.40
2023-03-11T18:35:24.091Z,7.30
2023-03-11T18:38:11.415Z,7.30
2023-03-11T18:40:57.911Z,7.20
2023-03-11T18:43:43.349Z,7.20
2023-03-11T18:46:31.532Z,7.10
2023-03-11T18:49:17.150Z,7.10
2023-03-11T18:52:02.867Z,7.00
2023-03-11T18:54:48.733Z,7.20
2023-03-11T18:57:34.485Z,7.20
2023-03-11T19:00:23.597Z,7.20
2023-03-11T19:03:12.460Z,7.10
2023-03-11T19:05:58.072Z,7.00
2023-03-11T19:08:43.764Z,7.00
2023-03-11T19:11:29.518Z,6.90
2023-03-11T19:14:15.597Z,6.80
2023-03-11T19:17:01.373Z,6.70
2023-03-11T19:19:47.158Z,6.60
2023-03-11T19:22:32.968Z,6.40
2023-03-11T19:25:21.118Z,6.30
2023-03-11T19:28:06.623Z,6.40
2023-03-11T19:30:52.805Z,6.20
2023-03-11T19:33:38.312Z,6.10
2023-03-11T19:36:24.053Z,5.90
2023-03-11T19:39:09.728Z,5.80
2023-03-11T19:41:55.647Z,5.70
2023-03-11T19:44:41.252Z,5.60
2023-03-11T19:47:27.089Z,5.40
2023-03-11T19:50:12.700Z,5.30
2023-03-11T19:52:58.033Z,5.30
2023-03-11T19:55:44.671Z,5.20
2023-03-11T19:58:31.169Z,5.10
2023-03-11T20:01:20.630Z,5.10
2023-03-11T20:04:06.120Z,5.00
2023-03-11T20:06:51.708Z,4.90
2023-03-11T20:09:37.267Z,4.90
2023-03-11T20:12:22.814Z,4.70
2023-03-11T20:15:08.840Z,4.70
2023-03-11T20:17:54.197Z,4.60
2023-03-11T20:20:39.927Z,4.60
2023-03-11T20:23:25.364Z,4.60
2023-03-11T20:26:15.085Z,4.50
2023-03-11T20:29:00.984Z,4.40
2023-03-11T20:31:46.630Z,4.30
2023-03-11T20:34:32.415Z,4.00
2023-03-11T20:37:17.925Z,3.80
2023-03-11T20:40:03.957Z,3.70
2023-03-11T20:42:49.474Z,3.70
2023-03-11T20:45:35.080Z,3.70
2023-03-11T20:48:20.934Z,3.60
2023-03-11T20:51:08.575Z,3.70
2023-03-11T20:53:54.102Z,3.60
2023-03-11T20:56:39.815Z,3.50
2023-03-11T20:59:25.400Z,3.30
2023-03-11T21:02:13.914Z,3.20
2023-03-11T21:04:59.769Z,3.10
2023-03-11T21:07:47.650Z,3.20
2023-03-11T21:10:33.399Z,3.30
2023-03-11T21:13:19.049Z,3.50
2023-03-11T21:16:05.747Z,3.50
2023-03-11T21:18:51.676Z,3.60
2023-03-11T21:21:38.889Z,3.60
2023-03-11T21:24:24.654Z,3.60
2023-03-11T21:27:10.398Z,3.60
2023-03-11T21:29:56.551Z,3.60
2023-03-11T21:32:42.433Z,3.50
2023-03-11T21:35:28.976Z,3.40
2023-03-11T21:38:14.644Z,3.40
2023-03-11T21:41:06.777Z,4.30
2023-03-11T21:43:53.456Z,3.40
2023-03-11T21:46:39.258Z,3.40
2023-03-11T21:49:24.857Z,3.30
2023-03-11T21:52:10.715Z,3.30
2023-03-11T21:54:56.582Z,3.40
2023-03-11T21:57:41.834Z,3.30
2023-03-11T22:00:27.228Z,3.30
2023-03-11T22:03:13.282Z,3.30
2023-03-11T22:05:59.626Z,3.40
2023-03-11T22:08:45.340Z,3.30
2023-03-11T22:11:31.011Z,3.30
2023-03-11T22:14:17.871Z,3.30
2023-03-11T22:17:03.520Z,3.30
2023-03-11T22:19:49.053Z,3.90
2023-03-11T22:22:34.841Z,4.20
2023-03-11T22:25:20.309Z,3.40
2023-03-11T22:28:05.831Z,3.40
2023-03-11T22:30:51.590Z,3.30
2023-03-11T22:33:37.481Z,3.30
2023-03-11T22:36:22.760Z,3.30
2023-03-11T22:39:08.352Z,3.30
2023-03-11T22:41:54.003Z,3.30
2023-03-11T22:44:39.860Z,3.40
2023-03-11T22:47:25.574Z,3.30
2023-03-11T22:50:11.214Z,3.20
2023-03-11T22:52:56.855Z,3.30
2023-03-11T22:55:43.279Z,3.30
2023-03-11T22:58:28.820Z,3.30
2023-03-11T23:01:13.964Z,3.30
2023-03-11T23:03:59.711Z,3.30
2023-03-11T23:06:45.014Z,3.40
2023-03-11T23:09:30.663Z,3.40
2023-03-11T23:12:18.020Z,3.70
2023-03-11T23:15:04.170Z,3.40
2023-03-11T23:17:49.713Z,3.40
2023-03-11T23:20:36.736Z,3.40
2023-03-11T23:23:22.056Z,3.40
2023-03-11T23:26:09.100Z,3.20
2023-03-11T23:28:54.923Z,3.30
2023-03-11T23:31:40.686Z,3.40
2023-03-11T23:34:26.247Z,3.50
2023-03-11T23:37:11.954Z,3.50
2023-03-11T23:39:57.701Z,3.60
2023-03-11T23:42:43.382Z,3.70
2023-03-11T23:45:28.813Z,3.70
2023-03-11T23:48:15.605Z,3.80
2023-03-11T23:51:00.981Z,3.80
2023-03-11T23:53:46.838Z,3.90
2023-03-11T23:56:32.664Z,3.80
2023-03-11T23:59:18.117Z,3.80
